Scroll down
FLIGHT INFORMATION
Norwegian Air Shuttle

NAX948

At Arrival Gate

ENGM
 EKCH
DATE: 2020-07-15
GATE:  -
GATE DEPARTURE: 16:29
TAKEOFF: 16:39
DATE: 2020-07-15
GATE:  -
LANDING: 17:31
GATE ARRIVAL: 17:55
FLIGHT DATA
Crew: ANTON VIND
Speed: 462 kts Altitude: 35000 ft
Stage Length: 280 nm
Route: ENGM OKSAT GETPA KORET LATKU KELIN LALIL TOPLA ATRIB ERNOV EKCH
Block Time: 1.4 Flight Time: 0.9
Fuel Used: 6003 LB
TRACK DATA
50000 FT1000 KT
AIRCRAFT INFORMATION
Aircraft Type: B738BW
Registration: SE-RRC
SELCAL:  MSN/LN: 40869 / 3651
Operator: NORWEGIAN AIR SHUTTLE
Flights: 37 Block Time: 71.7 Flight Time: 64.6
Fuel Used: 399045 LB
  • DEPARTURE INFORMATION
    Date: 2020-07-15
    Airport: ENGM
    Gate:  -
    Gate Departure: 16:29
    Takeoff: 16:39
    ARRIVAL INFORMATION
    Date: 2020-07-15
    Airport: EKCH
    Gate:  -
    Landing: 17:31
    Gate Arrival: 17:55
  • FLIGHT DATA
    Crew: ANTON VIND
    Speed: 462 kts Altitude: 35000 ft
    Stage Length: 151 nm
    Route: ENGM OKSAT GETPA KORET LATKU KELIN LALIL TOPLA ATRIB ERNOV EKCH
    Block Time: 1.4 Flight Time: 0.9
    Fuel Used: 6003 LB
  • AIRCRAFT INFORMATION
    Aircraft Type: B738BW
    Registration: SE-RRC
    SELCAL:  MSN/LN: 40869 / 3651
    Operator: Norwegian Air Shuttle
    Flights: 37 Block Time: 71.7 Flight Time: 64.6
    Fuel Used: 399045 LB

DATALINK LOG | Newest first | Current as of: 2020-09-30 09:59:02
LABEL SEQUENCE CONTENT Dn/Up
5Z583815 JUL 20 17:57:59z / FLT DECK GOOD / ACF POS GOOD / GRND SERVICES GOOD / MAINT FAILURES ACTIVE▼ Dn
QD563617:55 8▼ Dn
QC321717:31▼ Dn
2U2613EKCH 151650Z 18008KT 9999 SCT030CB SCT042 18/12 Q1012 TEMPO SHRA▲ Up
2S2709EKCH▼ Dn
2U1158EKCH 151650Z 18008KT 9999 SCT030CB SCT042 18/12 Q1012 TEMPO SHRA▲ Up
2S1154EKCH▼ Dn
GA5841ADVANCED GATE ASSIGNMENTS NOT YET AVAILABLE AT THIS AIRPORT▲ Up
GR5841EKCH 17:32 HI-VAL NO DIPL/VIP NO▼ Dn
UM675144PROCEED BACK ON ROUTE▲ Up
DM515134WHEN CAN WE EXPECT BACK ON ROUTE▼ Dn
2U4814EKCH 151620Z AUTO 16008KT 9999 SCT075/// 17/13 Q1012 TEMPO SHRA SCT030CB▲ Up
2S4831EKCH▼ Dn
5U4711EKCH 152043Z 24006KT 9999 SCT020 17/13 Q1012▲ Up
5S4730EKCH▼ Dn
UM64 UM694336OFFSET 010 NM RIGHT OF ROUTE. REJOIN ROUTE BY 58 MINUTES PAST THE HOUR▲ Up
DM154326REQUEST OFFSET 010 NM RIGHT OF ROUTE▼ Dn
QB402316:39▼ Dn
2U3410ENGM 151620Z 09007KT 050V130 9999 -SHRA SCT034TCU 17/13 Q1010 TEMPO SHRA▲ Up
2S3417ENGM▼ Dn
QA301416:29 14.1▼ Dn
2U2234EKCH 151550Z AUTO 15008KT 9999 NCD 18/11 Q1011 NOSIG▲ Up
2U2234ENGM 151550Z 07009KT 9999 SCT030TCU 18/13 Q1010 NOSIG▲ Up
2S2206ENGM EKCH▼ Dn
A31610CLEARED TO EKCH VIA OKSA4A OKSAT L996 ERNOV ERNO1N. SQUAWK .▲ Up
B31600ENGM EKCH NAX948 SE-RRC ▼ Dn
Q01358[LINK ACK]▲ Up
Q01358[LINK TEST]▼ Dn


AIRCRAFT HISTORY
FLIGHT DATE FLIGHT NO. ORIGIN DESTINATION ROUTE BLOCK TIME FLIGHT TIME FUEL USED (LB) PILOT
2020-09-29NAX541ENZV ENGM ENZV UPLEV OSKOM RIPAM ENGM0.90.74701Anton Vind
2020-09-11NAX911ENGM ENZV 10.85334Kevin Hall
2020-09-11NAX911ESSA ENGM ESSA ARS BEDLA IBGAX EBURI TEKVA ESEBA ENGM10.96238Kevin Hall
2020-09-02NAX4064ESNQ ESSA ESNQ VAGAS ITVAV OSKIR REKMI RASEN OSK SIPRI HMR ESSA1.41.38185Robin Oeverby
2020-08-14NAX4063ESSA ESNQ ESSA RESNA OSK RASEN REKMI OSKIR ITVAV VAGAS ESNQ1.51.38793Robin Oeverby
2020-08-13NAX4334LDDU ESSA LDDU MADOS TODNI SIVLA BAREB EPARI PATAK BABKO EVGUR POLON EVEPU ADOXO PENEX NASOK BIBKA GRUDA IRLUN KARTI VAPOS DOMAG MOTAD PENOR TESPO ARMOD NILUG ESSA2.72.616031Robin Oeverby
2020-08-10NAX3280EKCH LDDU EKCH SIMEG TELMO KEKOV KOLOB ELPOL OGRES UNDUK NASOK PENEX ADOXO EVEPU POLON GIPOS VIDEV IRBOS NUBLI LUBEN OVBOR NEGUV KUKAM BABKO XOMBA VEBAL GUBOK NETKO NERRA LDDU2.42.213767Robin Oeverby
2020-08-07NAX3205ESSA EKCH 1.10.85783Anton Vind
2020-08-07NAX3204EKCH ESSA EKCH KEMAX NEXIL ROXEN DEKIK VEPIP BEDOS NEFYN MIKNA PELUP NILUG ESSA1.216510Anton Vind
2020-08-05NAX3647EDDH EKCH 0.70.64372Anton Vind
2020-08-05NAX3647LFMN EDDH 2.11.911781Anton Vind
2020-08-05NAX3646EKCH LFMN EKCH NEXEN GIMRU MICOS WRB RANAX EDEGA AMETU SOGMI BOMBI GIGET ABUKA KRH EPIXU NATOR TITIX TRA RIPUS GERSA SOSON DEGAD ODINA EVANO ENOBA ASBOP BORDI LFMN2.21.911799Anton Vind
2020-07-28NAX3090EKYT EKCH 0.70.53604Anton Vind
2020-07-28NAX3090EKCH EKYT EKCH MIKSI ASLID AAL EKYT0.70.53680Anton Vind
2020-07-19NAX3540EHAM EKCH 1.31.17106Anton Vind
2020-07-19NAX3540EKCH EHAM EKCH LANGO ALS DEMIR DEGUL GOLEN KUBAT EEL EHAM1.51.17800Anton Vind
2020-07-18NAX3668LEPA EKCH 3.22.917012Anton Vind
2020-07-18NAX3668EKCH LEPA EKCH LANGO DEGUL GOLEN KUBAT EEL LILSI PAM LEKKO LARAS KUDAD WOODY NIK DENOX CIV MEDIL PITHI LESDO KOVIN DUCRA RESMI DEKOD DISAK DEPOM DIRMO ETAMO VALKU ATSUP MINSO DITEV DEGOL PPG ALBER GIR NENDA KUREG LORES LEPA2.82.715682Anton Vind
2020-07-17NAX3647LFMN EKCH 2.32.112588Anton Vind
2020-07-17NAX3646EKCH LFMN EKCH SIMEG BALOX SALLO PEROM BAKDO TIMIB INDOK BIRMO SUVAL SOGMA GUGSU BUREL UBIGI ASMIG MAXAN ORTAG BAMKI IBAGA DKB GUPIN TEDGO NATOR TITIX TRA RIPUS GERSA SOSON DEGAD ODINA ENOBA ASBOP BORDI LFMN2.21.911832Anton Vind
2020-07-16NAX3563EPKK EKCH 1.41.37897Anton Vind
2020-07-16NAX3562EKCH EPKK EKCH SIMEG BIKRU BILRA XELOL DEMUR BEDAM VAVUN DOSAL PIXOR XERBI DENKO BINPO VELAB MISKA MAPIK EPKK1.51.28182Anton Vind
2020-07-15NAX948ENGM EKCH ENGM OKSAT GETPA KORET LATKU KELIN LALIL TOPLA ATRIB ERNOV EKCH1.40.96003Anton Vind
2020-07-15NAX413ENAL ENGM ENAL GIGIR KEMIV BELGU ENGM1.30.76116Anton Vind
2020-06-25NAX402ENGM ENAL ENGM GM442 GM616 GM619 GM717 EVTOG OSVIG XISCO OBITI ENAL0.90.74423Robin Oeverby
2020-06-21NAX1977LYBE ENGM LYBE TISAK TONDO BEGLA LOKVU LEMBI HDO BUSIR KOBUS EBASA LUROS OBANI IDOBA TUVAK GERGA RENKI RAKIT RODEP UDAXI MASOR LABES KOGIM ARGAD SALLO TOPLA XENTA REGMA LUNIP ENGM2.72.414994Robin Oeverby
2020-06-14NAX4341ESSA LYBE ESSA TRS NUGPU INGIS ARMOD TESPO PENOR MOTAD DOMAG VAPOS KARTI IRLUN GRUDA BIBKA NASOK PENEX ADOXO EVEPU POLON EVGUR BABKO LITKU PARAK TISAK LYBE2.32.213151Robin Oeverby
2020-06-12NAX4072ESGG ESSA ESGG LABAN DETSO PELIT TORVA ARS ELTOK ESSA10.74969Robin Oeverby
2020-06-11NAX4266LEAL ESGG LEAL MITOS ARGOR EBROX LATRO OLOXO OKABI TOU FISTO PERIG FOUCO ADABI BOKNO DEVRO VANAD VADOM BAMES ARSAF KOPOR MTD NURMO PERON SULEX CMB VEKIN ADUTO FERDI HELEN TOLEN STD EKROS SPY BETUS ANDIK KEKIX GRONY BEDUM LABIL JUIST NIRDU CORIS WELGO LEGPI TUSKA INSUS MIKRO BAVTA GIKIV INTET RADIS GOTEX LOBBI ESGG3.33.118625Robin Oeverby
2020-06-11NAX5345ENTC LEAL ENTC AMIMO GUBAV TUXOT SOMUB VEXOM TUTBI BELGU GIMEX RIPAM ULMUG PIPEX AMSEV PEVOR BAVTA MIKRO INSUS TUSKA LEGPI WELGO CORIS NIRDU JUIST TEMLU EEL LILSI PAM LEKKO LARAS KUDAD WOODY NIK DENOX CIV MEDIL PITHI LESDO KOVIN DUCRA RESMI DEKOD DISAK DEPOM DIRMO GUERE ETENU EVPOK MAKOX AGN ANETO TURUV GRAUS LOBAR SEROX CASPE MLA CRETA RIMES SAURA TATOS PLANA VLC LEAL54.827489Robin Oeverby
2020-06-10NAX328ENGM ENTC ENGM RIBBE GIGNI SOMUB TUXOT GUBAV AMIMO ENTC1.71.59596Robin Oeverby
2020-06-10NAX949EKCH ENGM EKCH VEDAR LASLI RISMA GIXUN SABAK XENTA REGMA LUNIP ENGM10.85826Robin Oeverby
2020-06-06NAX3615LPMA EKCH LPMA SNT LIDRO VABEM PINEK LOTEE NOVAN ERIGA MOKOR OLEBA BAKUL ARDOD OBATO RONAX SORAP DITAL EVX PODEM BAZOS SOMIL BELDI VEKIN ADUTO FERDI HELEN TOLEN DOSUR TALSA TUDLO EKCH4.3424034Robin Oeverby
2020-03-07NAX260LGSA LPMA 5.65.431323Chris Makris
2019-11-23NAX260LOWI LGSA 2.52.313794Chris Makris
2019-11-18NAX260ENGM LOWI 2.62.313667Chris Makris
2019-11-13NAX8187ESSA ENGM 1.10.86361Matthew Gales